sensor_id;sensor_type;location;lat;lon;timestamp;pressure;altitude;pressure_sealevel;temperature;humidity
26043;BME280;13818;52.156;5.382;2023-04-24T00:01:54;99527.81;;;10.29;100.00
26043;BME280;13818;52.156;5.382;2023-04-24T00:04:21;99525.91;;;10.31;100.00
26043;BME280;13818;52.156;5.382;2023-04-24T00:06:52;99534.03;;;10.29;100.00
26043;BME280;13818;52.156;5.382;2023-04-24T00:09:22;99535.19;;;10.25;100.00
26043;BME280;13818;52.156;5.382;2023-04-24T00:11:49;99545.63;;;10.28;100.00
26043;BME280;13818;52.156;5.382;2023-04-24T00:14:15;99558.09;;;10.28;100.00
26043;BME280;13818;52.156;5.382;2023-04-24T00:16:42;99554.78;;;10.24;100.00
26043;BME280;13818;52.156;5.382;2023-04-24T00:19:08;99557.72;;;10.19;100.00
26043;BME280;13818;52.156;5.382;2023-04-24T00:21:37;99553.34;;;10.18;100.00
26043;BME280;13818;52.156;5.382;2023-04-24T00:24:06;99557.34;;;10.11;100.00
26043;BME280;13818;52.156;5.382;2023-04-24T00:26:34;99552.28;;;10.21;100.00
26043;BME280;13818;52.156;5.382;2023-04-24T00:29:00;99563.81;;;10.21;100.00
26043;BME280;13818;52.156;5.382;2023-04-24T00:31:29;99564.09;;;10.17;100.00
26043;BME280;13818;52.156;5.382;2023-04-24T00:33:55;99574.09;;;10.13;100.00
26043;BME280;13818;52.156;5.382;2023-04-24T00:36:22;99573.91;;;10.16;100.00
26043;BME280;13818;52.156;5.382;2023-04-24T00:38:48;99569.66;;;10.14;100.00
26043;BME280;13818;52.156;5.382;2023-04-24T00:41:16;99572.31;;;10.14;100.00
26043;BME280;13818;52.156;5.382;2023-04-24T00:43:43;99567.72;;;10.16;100.00
26043;BME280;13818;52.156;5.382;2023-04-24T00:46:10;99568.66;;;10.15;100.00
26043;BME280;13818;52.156;5.382;2023-04-24T00:48:37;99573.53;;;10.08;100.00
26043;BME280;13818;52.156;5.382;2023-04-24T00:51:04;99570.09;;;10.06;100.00
26043;BME280;13818;52.156;5.382;2023-04-24T00:53:31;99569.94;;;10.09;100.00
26043;BME280;13818;52.156;5.382;2023-04-24T00:55:58;99580.69;;;10.07;100.00
26043;BME280;13818;52.156;5.382;2023-04-24T00:58:27;99580.03;;;10.04;100.00
26043;BME280;13818;52.156;5.382;2023-04-24T01:00:54;99576.59;;;10.02;100.00
26043;BME280;13818;52.156;5.382;2023-04-24T01:03:25;99585.34;;;10.04;100.00
26043;BME280;13818;52.156;5.382;2023-04-24T01:05:53;99592.84;;;10.12;100.00
26043;BME280;13818;52.156;5.382;2023-04-24T01:08:21;99595.09;;;10.18;100.00
26043;BME280;13818;52.156;5.382;2023-04-24T01:10:50;99580.69;;;10.07;100.00
26043;BME280;13818;52.156;5.382;2023-04-24T01:13:18;99598.16;;;10.12;100.00
26043;BME280;13818;52.156;5.382;2023-04-24T01:15:46;99597.59;;;10.06;100.00
26043;BME280;13818;52.156;5.382;2023-04-24T01:18:13;99599.41;;;10.06;100.00
26043;BME280;13818;52.156;5.382;2023-04-24T01:20:40;99598.63;;;10.18;100.00
26043;BME280;13818;52.156;5.382;2023-04-24T01:23:10;99600.13;;;10.22;100.00
26043;BME280;13818;52.156;5.382;2023-04-24T01:25:37;99606.03;;;10.28;100.00
26043;BME280;13818;52.156;5.382;2023-04-24T01:28:03;99608.41;;;10.18;100.00
26043;BME280;13818;52.156;5.382;2023-04-24T01:30:31;99603.00;;;10.19;100.00
26043;BME280;13818;52.156;5.382;2023-04-24T01:32:58;99609.81;;;10.23;100.00
26043;BME280;13818;52.156;5.382;2023-04-24T01:35:25;99617.25;;;10.18;100.00
26043;BME280;13818;52.156;5.382;2023-04-24T01:37:52;99611.81;;;10.20;100.00
26043;BME280;13818;52.156;5.382;2023-04-24T01:40:20;99613.44;;;10.22;100.00
26043;BME280;13818;52.156;5.382;2023-04-24T01:42:46;99609.53;;;10.28;100.00
26043;BME280;13818;52.156;5.382;2023-04-24T01:45:13;99615.16;;;10.23;100.00
26043;BME280;13818;52.156;5.382;2023-04-24T01:47:40;99616.84;;;10.24;100.00
26043;BME280;13818;52.156;5.382;2023-04-24T01:50:07;99624.56;;;10.29;100.00
26043;BME280;13818;52.156;5.382;2023-04-24T01:52:34;99621.91;;;10.29;100.00
26043;BME280;13818;52.156;5.382;2023-04-24T01:55:01;99622.00;;;10.28;100.00
26043;BME280;13818;52.156;5.382;2023-04-24T01:57:31;99622.56;;;10.33;100.00
26043;BME280;13818;52.156;5.382;2023-04-24T01:59:57;99620.59;;;10.36;100.00
26043;BME280;13818;52.156;5.382;2023-04-24T02:02:24;99621.03;;;10.29;100.00
26043;BME280;13818;52.156;5.382;2023-04-24T02:04:52;99622.09;;;10.26;100.00
26043;BME280;13818;52.156;5.382;2023-04-24T02:07:19;99625.97;;;10.35;100.00
26043;BME280;13818;52.156;5.382;2023-04-24T02:09:45;99617.72;;;10.39;100.00
26043;BME280;13818;52.156;5.382;2023-04-24T02:12:12;99620.28;;;10.41;100.00
26043;BME280;13818;52.156;5.382;2023-04-24T02:14:40;99620.09;;;10.44;100.00
26043;BME280;13818;52.156;5.382;2023-04-24T02:17:07;99621.22;;;10.40;100.00
26043;BME280;13818;52.156;5.382;2023-04-24T02:19:34;99612.16;;;10.42;100.00
26043;BME280;13818;52.156;5.382;2023-04-24T02:22:00;99616.00;;;10.38;100.00
26043;BME280;13818;52.156;5.382;2023-04-24T02:24:26;99623.88;;;10.40;100.00
26043;BME280;13818;52.156;5.382;2023-04-24T02:26:53;99634.16;;;10.32;100.00
26043;BME280;13818;52.156;5.382;2023-04-24T02:29:19;99621.50;;;10.35;100.00
26043;BME280;13818;52.156;5.382;2023-04-24T02:31:47;99626.47;;;10.41;100.00
26043;BME280;13818;52.156;5.382;2023-04-24T02:34:14;99631.13;;;10.38;100.00
26043;BME280;13818;52.156;5.382;2023-04-24T02:36:41;99617.81;;;10.38;100.00
26043;BME280;13818;52.156;5.382;2023-04-24T02:39:08;99623.03;;;10.39;100.00
26043;BME280;13818;52.156;5.382;2023-04-24T02:41:34;99616.25;;;10.34;100.00
26043;BME280;13818;52.156;5.382;2023-04-24T02:44:01;99624.09;;;10.37;100.00
26043;BME280;13818;52.156;5.382;2023-04-24T02:46:27;99623.59;;;10.45;100.00
26043;BME280;13818;52.156;5.382;2023-04-24T02:48:55;99623.59;;;10.45;100.00
26043;BME280;13818;52.156;5.382;2023-04-24T02:51:22;99621.97;;;10.42;100.00
26043;BME280;13818;52.156;5.382;2023-04-24T02:53:48;99616.44;;;10.45;100.00
26043;BME280;13818;52.156;5.382;2023-04-24T02:56:15;99621.78;;;10.45;100.00
26043;BME280;13818;52.156;5.382;2023-04-24T02:58:41;99625.59;;;10.41;100.00
26043;BME280;13818;52.156;5.382;2023-04-24T03:01:08;99629.41;;;10.37;100.00
26043;BME280;13818;52.156;5.382;2023-04-24T03:03:35;99619.41;;;10.26;100.00
26043;BME280;13818;52.156;5.382;2023-04-24T03:06:04;99622.00;;;10.28;100.00
26043;BME280;13818;52.156;5.382;2023-04-24T03:08:31;99619.81;;;10.20;100.00
26043;BME280;13818;52.156;5.382;2023-04-24T03:10:57;99618.75;;;10.22;100.00
26043;BME280;13818;52.156;5.382;2023-04-24T03:13:24;99618.03;;;10.06;100.00
26043;BME280;13818;52.156;5.382;2023-04-24T03:15:50;99623.91;;;10.11;100.00
26043;BME280;13818;52.156;5.382;2023-04-24T03:18:18;99625.28;;;10.04;100.00
26043;BME280;13818;52.156;5.382;2023-04-24T03:20:45;99623.00;;;9.98;100.00
26043;BME280;13818;52.156;5.382;2023-04-24T03:23:14;99632.13;;;9.93;100.00
26043;BME280;13818;52.156;5.382;2023-04-24T03:25:40;99628.31;;;9.98;100.00
26043;BME280;13818;52.156;5.382;2023-04-24T03:28:08;99620.06;;;10.02;100.00
26043;BME280;13818;52.156;5.382;2023-04-24T03:30:34;99621.94;;;10.00;100.00
26043;BME280;13818;52.156;5.382;2023-04-24T03:33:01;99627.28;;;10.00;100.00
26043;BME280;13818;52.156;5.382;2023-04-24T03:35:27;99628.31;;;9.98;100.00
26043;BME280;13818;52.156;5.382;2023-04-24T03:37:54;99630.03;;;9.99;100.00
26043;BME280;13818;52.156;5.382;2023-04-24T03:40:21;99631.38;;;9.91;100.00
26043;BME280;13818;52.156;5.382;2023-04-24T03:42:48;99622.91;;;9.85;100.00
26043;BME280;13818;52.156;5.382;2023-04-24T03:45:14;99625.09;;;9.92;100.00
26043;BME280;13818;52.156;5.382;2023-04-24T03:47:41;99628.22;;;9.99;100.00
26043;BME280;13818;52.156;5.382;2023-04-24T03:50:08;99623.84;;;9.98;100.00
26043;BME280;13818;52.156;5.382;2023-04-24T03:52:35;99639.06;;;9.96;100.00
26043;BME280;13818;52.156;5.382;2023-04-24T03:55:01;99636.47;;;9.94;100.00
26043;BME280;13818;52.156;5.382;2023-04-24T03:57:29;99637.53;;;10.06;100.00
26043;BME280;13818;52.156;5.382;2023-04-24T03:59:56;99641.81;;;10.09;100.00
26043;BME280;13818;52.156;5.382;2023-04-24T04:02:22;99642.88;;;10.06;100.00
26043;BME280;13818;52.156;5.382;2023-04-24T04:04:49;99646.38;;;10.07;100.00
26043;BME280;13818;52.156;5.382;2023-04-24T04:07:15;99634.69;;;9.95;100.00
26043;BME280;13818;52.156;5.382;2023-04-24T04:09:42;99651.50;;;9.96;100.00
26043;BME280;13818;52.156;5.382;2023-04-24T04:12:08;99645.34;;;9.95;100.00
26043;BME280;13818;52.156;5.382;2023-04-24T04:14:36;99648.19;;;9.92;100.00
26043;BME280;13818;52.156;5.382;2023-04-24T04:17:03;99642.78;;;9.93;100.00
26043;BME280;13818;52.156;5.382;2023-04-24T04:19:29;99653.22;;;9.97;100.00
26043;BME280;13818;52.156;5.382;2023-04-24T04:21:56;99647.06;;;9.96;100.00
26043;BME280;13818;52.156;5.382;2023-04-24T04:24:22;99651.22;;;10.00;100.00
26043;BME280;13818;52.156;5.382;2023-04-24T04:26:49;99648.91;;;10.08;100.00
26043;BME280;13818;52.156;5.382;2023-04-24T04:29:16;99652.56;;;10.07;100.00
26043;BME280;13818;52.156;5.382;2023-04-24T04:31:44;99651.31;;;10.13;100.00
26043;BME280;13818;52.156;5.382;2023-04-24T04:34:10;99654.25;;;10.08;100.00
26043;BME280;13818;52.156;5.382;2023-04-24T04:36:37;99661.13;;;10.13;100.00
26043;BME280;13818;52.156;5.382;2023-04-24T04:39:06;99663.28;;;10.06;100.00
26043;BME280;13818;52.156;5.382;2023-04-24T04:41:33;99674.81;;;10.06;100.00
26043;BME280;13818;52.156;5.382;2023-04-24T04:44:00;99676.91;;;10.01;100.00
26043;BME280;13818;52.156;5.382;2023-04-24T04:46:30;99672.81;;;9.96;100.00
26043;BME280;13818;52.156;5.382;2023-04-24T04:48:59;99683.63;;;10.07;100.00
26043;BME280;13818;52.156;5.382;2023-04-24T04:51:25;99680.59;;;10.13;100.00
26043;BME280;13818;52.156;5.382;2023-04-24T04:53:52;99687.53;;;10.16;100.00
26043;BME280;13818;52.156;5.382;2023-04-24T04:56:18;99685.91;;;10.13;100.00
26043;BME280;13818;52.156;5.382;2023-04-24T04:58:45;99691.63;;;10.07;100.00
26043;BME280;13818;52.156;5.382;2023-04-24T05:01:12;99698.28;;;10.14;100.00
26043;BME280;13818;52.156;5.382;2023-04-24T05:03:39;99711.50;;;10.16;100.00
26043;BME280;13818;52.156;5.382;2023-04-24T05:06:07;99708.81;;;10.16;100.00
26043;BME280;13818;52.156;5.382;2023-04-24T05:08:34;99713.00;;;10.20;100.00
26043;BME280;13818;52.156;5.382;2023-04-24T05:11:00;99707.78;;;10.18;100.00
26043;BME280;13818;52.156;5.382;2023-04-24T05:13:28;99715.94;;;10.30;100.00
26043;BME280;13818;52.156;5.382;2023-04-24T05:15:54;99714.16;;;10.30;100.00
26043;BME280;13818;52.156;5.382;2023-04-24T05:18:20;99720.81;;;10.37;100.00
26043;BME280;13818;52.156;5.382;2023-04-24T05:20:47;99735.00;;;10.38;100.00
26043;BME280;13818;52.156;5.382;2023-04-24T05:23:16;99736.72;;;10.39;100.00
26043;BME280;13818;52.156;5.382;2023-04-24T05:25:42;99729.38;;;10.42;100.00
26043;BME280;13818;52.156;5.382;2023-04-24T05:28:09;99734.13;;;10.37;100.00
26043;BME280;13818;52.156;5.382;2023-04-24T05:30:35;99744.19;;;10.32;100.00
26043;BME280;13818;52.156;5.382;2023-04-24T05:33:02;99747.94;;;10.44;100.00
26043;BME280;13818;52.156;5.382;2023-04-24T05:35:28;99748.63;;;10.48;100.00
26043;BME280;13818;52.156;5.382;2023-04-24T05:37:57;99759.28;;;10.48;100.00
26043;BME280;13818;52.156;5.382;2023-04-24T05:40:25;99759.81;;;10.38;100.00
26043;BME280;13818;52.156;5.382;2023-04-24T05:42:51;99769.03;;;10.33;100.00
26043;BME280;13818;52.156;5.382;2023-04-24T05:45:18;99773.81;;;10.28;100.00
26043;BME280;13818;52.156;5.382;2023-04-24T05:47:44;99771.31;;;10.10;100.00
26043;BME280;13818;52.156;5.382;2023-04-24T05:50:11;99774.44;;;10.17;100.00
26043;BME280;13818;52.156;5.382;2023-04-24T05:52:38;99784.06;;;10.19;100.00
26043;BME280;13818;52.156;5.382;2023-04-24T05:55:05;99787.00;;;10.15;100.00
26043;BME280;13818;52.156;5.382;2023-04-24T05:57:32;99785.53;;;9.94;100.00
26043;BME280;13818;52.156;5.382;2023-04-24T05:59:59;99794.88;;;9.87;100.00
26043;BME280;13818;52.156;5.382;2023-04-24T06:02:26;99799.41;;;9.85;100.00
26043;BME280;13818;52.156;5.382;2023-04-24T06:04:52;99806.63;;;9.83;100.00
26043;BME280;13818;52.156;5.382;2023-04-24T06:07:19;99806.50;;;9.70;100.00
26043;BME280;13818;52.156;5.382;2023-04-24T06:09:46;99815.72;;;9.65;100.00
26043;BME280;13818;52.156;5.382;2023-04-24T06:12:12;99823.16;;;9.74;100.00
26043;BME280;13818;52.156;5.382;2023-04-24T06:14:40;99821.31;;;9.74;100.00
26043;BME280;13818;52.156;5.382;2023-04-24T06:17:07;99826.75;;;9.73;100.00
26043;BME280;13818;52.156;5.382;2023-04-24T06:19:33;99834.94;;;9.70;100.00
26043;BME280;13818;52.156;5.382;2023-04-24T06:22:00;99833.00;;;9.72;100.00
26043;BME280;13818;52.156;5.382;2023-04-24T06:24:27;99840.16;;;9.71;100.00
26043;BME280;13818;52.156;5.382;2023-04-24T06:26:53;99847.00;;;9.75;100.00
26043;BME280;13818;52.156;5.382;2023-04-24T06:29:21;99844.00;;;9.66;100.00
26043;BME280;13818;52.156;5.382;2023-04-24T06:31:50;99854.06;;;9.60;100.00
26043;BME280;13818;52.156;5.382;2023-04-24T06:34:16;99858.91;;;9.38;100.00
26043;BME280;13818;52.156;5.382;2023-04-24T06:36:42;99855.84;;;9.46;100.00
26043;BME280;13818;52.156;5.382;2023-04-24T06:39:09;99865.94;;;9.39;100.00
26043;BME280;13818;52.156;5.382;2023-04-24T06:41:36;99880.78;;;9.43;100.00
26043;BME280;13818;52.156;5.382;2023-04-24T06:44:02;99887.06;;;9.42;100.00
26043;BME280;13818;52.156;5.382;2023-04-24T06:46:29;99891.94;;;9.34;100.00
26043;BME280;13818;52.156;5.382;2023-04-24T06:48:57;99895.81;;;9.28;100.00
26043;BME280;13818;52.156;5.382;2023-04-24T06:51:24;99903.25;;;9.21;100.00
26043;BME280;13818;52.156;5.382;2023-04-24T06:53:51;99913.75;;;9.24;100.00
26043;BME280;13818;52.156;5.382;2023-04-24T06:56:18;99916.50;;;9.23;100.00
26043;BME280;13818;52.156;5.382;2023-04-24T06:58:44;99915.09;;;9.16;100.00
26043;BME280;13818;52.156;5.382;2023-04-24T07:01:11;99927.38;;;9.18;100.00
26043;BME280;13818;52.156;5.382;2023-04-24T07:03:37;99934.47;;;9.18;100.00
26043;BME280;13818;52.156;5.382;2023-04-24T07:06:06;99942.72;;;9.13;100.00
26043;BME280;13818;52.156;5.382;2023-04-24T07:08:32;99946.31;;;9.12;100.00
26043;BME280;13818;52.156;5.382;2023-04-24T07:10:59;99944.75;;;9.08;100.00
26043;BME280;13818;52.156;5.382;2023-04-24T07:13:26;99955.56;;;9.05;100.00
26043;BME280;13818;52.156;5.382;2023-04-24T07:15:54;99965.56;;;9.00;100.00
26043;BME280;13818;52.156;5.382;2023-04-24T07:18:21;99971.75;;;9.00;100.00
26043;BME280;13818;52.156;5.382;2023-04-24T07:20:48;99979.38;;;8.90;100.00
26043;BME280;13818;52.156;5.382;2023-04-24T07:23:16;99996.25;;;8.89;100.00
26043;BME280;13818;52.156;5.382;2023-04-24T07:25:43;99990.22;;;8.86;100.00
26043;BME280;13818;52.156;5.382;2023-04-24T07:28:11;99987.16;;;8.93;100.00
26043;BME280;13818;52.156;5.382;2023-04-24T07:30:37;100003.19;;;8.92;100.00
26043;BME280;13818;52.156;5.382;2023-04-24T07:33:04;100019.66;;;8.99;100.00
26043;BME280;13818;52.156;5.382;2023-04-24T07:35:32;100010.31;;;8.91;100.00
26043;BME280;13818;52.156;5.382;2023-04-24T07:37:59;100017.41;;;8.91;100.00
26043;BME280;13818;52.156;5.382;2023-04-24T07:40:27;100026.19;;;8.93;100.00
26043;BME280;13818;52.156;5.382;2023-04-24T07:42:53;100033.88;;;8.98;100.00
26043;BME280;13818;52.156;5.382;2023-04-24T07:45:20;100041.72;;;9.01;100.00
26043;BME280;13818;52.156;5.382;2023-04-24T07:47:50;100037.94;;;9.05;100.00
26043;BME280;13818;52.156;5.382;2023-04-24T07:50:17;100051.25;;;9.05;100.00
26043;BME280;13818;52.156;5.382;2023-04-24T07:52:44;100048.44;;;9.08;100.00
26043;BME280;13818;52.156;5.382;2023-04-24T07:55:10;100050.84;;;9.12;100.00
26043;BME280;13818;52.156;5.382;2023-04-24T07:57:38;100060.75;;;9.09;100.00
26043;BME280;13818;52.156;5.382;2023-04-24T08:00:06;100061.31;;;9.16;100.00
26043;BME280;13818;52.156;5.382;2023-04-24T08:02:33;100070.75;;;9.21;100.00
26043;BME280;13818;52.156;5.382;2023-04-24T08:04:59;100074.34;;;9.20;100.00
26043;BME280;13818;52.156;5.382;2023-04-24T08:07:26;100081.97;;;9.10;100.00
26043;BME280;13818;52.156;5.382;2023-04-24T08:09:52;100085.09;;;9.01;100.00
26043;BME280;13818;52.156;5.382;2023-04-24T08:12:19;100077.44;;;8.95;100.00
26043;BME280;13818;52.156;5.382;2023-04-24T08:14:48;100092.00;;;8.88;100.00
26043;BME280;13818;52.156;5.382;2023-04-24T08:17:16;100098.47;;;8.82;100.00
26043;BME280;13818;52.156;5.382;2023-04-24T08:19:42;100100.03;;;8.86;100.00
26043;BME280;13818;52.156;5.382;2023-04-24T08:22:13;100105.44;;;8.85;100.00
26043;BME280;13818;52.156;5.382;2023-04-24T08:24:40;100117.16;;;8.81;100.00
26043;BME280;13818;52.156;5.382;2023-04-24T08:27:06;100127.16;;;8.75;100.00
26043;BME280;13818;52.156;5.382;2023-04-24T08:29:32;100134.72;;;8.66;100.00
26043;BME280;13818;52.156;5.382;2023-04-24T08:32:00;100142.06;;;8.60;100.00
26043;BME280;13818;52.156;5.382;2023-04-24T08:34:27;100141.13;;;8.61;100.00
26043;BME280;13818;52.156;5.382;2023-04-24T08:36:53;100149.56;;;8.70;100.00
26043;BME280;13818;52.156;5.382;2023-04-24T08:39:20;100153.56;;;8.78;100.00
26043;BME280;13818;52.156;5.382;2023-04-24T08:41:48;100153.34;;;8.83;100.00
26043;BME280;13818;52.156;5.382;2023-04-24T08:44:15;100161.41;;;8.82;100.00
26043;BME280;13818;52.156;5.382;2023-04-24T08:46:42;100163.59;;;8.91;100.00
26043;BME280;13818;52.156;5.382;2023-04-24T08:49:12;100165.81;;;9.00;100.00
26043;BME280;13818;52.156;5.382;2023-04-24T08:51:39;100161.78;;;9.09;100.00
26043;BME280;13818;52.156;5.382;2023-04-24T08:54:06;100183.63;;;9.16;100.00
26043;BME280;13818;52.156;5.382;2023-04-24T08:56:33;100182.38;;;9.05;100.00
26043;BME280;13818;52.156;5.382;2023-04-24T08:59:03;100187.00;;;9.19;100.00
26043;BME280;13818;52.156;5.382;2023-04-24T09:01:32;100197.84;;;9.15;100.00
26043;BME280;13818;52.156;5.382;2023-04-24T09:04:00;100201.84;;;9.23;100.00
26043;BME280;13818;52.156;5.382;2023-04-24T09:06:30;100207.63;;;9.32;100.00
26043;BME280;13818;52.156;5.382;2023-04-24T09:09:00;100201.06;;;9.39;100.00
26043;BME280;13818;52.156;5.382;2023-04-24T09:11:27;100196.03;;;9.33;100.00
26043;BME280;13818;52.156;5.382;2023-04-24T09:13:54;100208.31;;;9.35;100.00
26043;BME280;13818;52.156;5.382;2023-04-24T09:16:21;100208.88;;;9.42;100.00
26043;BME280;13818;52.156;5.382;2023-04-24T09:18:49;100210.13;;;9.52;100.00
26043;BME280;13818;52.156;5.382;2023-04-24T09:21:17;100204.72;;;9.54;100.00
26043;BME280;13818;52.156;5.382;2023-04-24T09:23:57;100204.50;;;9.58;100.00
26043;BME280;13818;52.156;5.382;2023-04-24T09:26:24;100221.59;;;9.70;100.00
26043;BME280;13818;52.156;5.382;2023-04-24T09:28:51;100221.66;;;9.86;100.00
26043;BME280;13818;52.156;5.382;2023-04-24T09:31:19;100224.75;;;9.94;100.00
26043;BME280;13818;52.156;5.382;2023-04-24T09:33:53;100224.59;;;9.98;100.00
26043;BME280;13818;52.156;5.382;2023-04-24T09:36:27;100234.09;;;10.19;100.00
26043;BME280;13818;52.156;5.382;2023-04-24T09:38:57;100241.25;;;10.19;100.00
26043;BME280;13818;52.156;5.382;2023-04-24T09:41:24;100238.06;;;10.28;100.00
26043;BME280;13818;52.156;5.382;2023-04-24T09:43:53;100237.66;;;10.36;100.00
26043;BME280;13818;52.156;5.382;2023-04-24T09:46:20;100256.34;;;10.18;100.00
26043;BME280;13818;52.156;5.382;2023-04-24T09:48:47;100244.75;;;10.19;100.00
26043;BME280;13818;52.156;5.382;2023-04-24T09:51:14;100262.13;;;10.26;100.00
26043;BME280;13818;52.156;5.382;2023-04-24T09:53:45;100265.41;;;10.32;100.00
26043;BME280;13818;52.156;5.382;2023-04-24T09:56:13;100262.88;;;10.29;100.00
26043;BME280;13818;52.156;5.382;2023-04-24T09:58:39;100271.19;;;10.40;100.00
26043;BME280;13818;52.156;5.382;2023-04-24T10:01:06;100272.91;;;10.41;100.00
26043;BME280;13818;52.156;5.382;2023-04-24T10:03:33;100274.38;;;10.63;100.00
26043;BME280;13818;52.156;5.382;2023-04-24T10:06:00;100280.84;;;10.58;100.00
26043;BME280;13818;52.156;5.382;2023-04-24T10:08:32;100283.00;;;10.68;100.00
26043;BME280;13818;52.156;5.382;2023-04-24T10:10:59;100281.63;;;10.77;100.00
26043;BME280;13818;52.156;5.382;2023-04-24T10:13:27;100289.69;;;10.75;100.00
26043;BME280;13818;52.156;5.382;2023-04-24T10:15:56;100288.94;;;10.73;100.00
26043;BME280;13818;52.156;5.382;2023-04-24T10:18:24;100303.03;;;10.75;100.00
26043;BME280;13818;52.156;5.382;2023-04-24T10:20:52;100294.19;;;10.74;100.00
26043;BME280;13818;52.156;5.382;2023-04-24T10:23:20;100290.72;;;10.72;100.00
26043;BME280;13818;52.156;5.382;2023-04-24T10:25:48;100299.06;;;10.66;100.00
26043;BME280;13818;52.156;5.382;2023-04-24T10:28:17;100303.88;;;10.60;100.00
26043;BME280;13818;52.156;5.382;2023-04-24T10:30:46;100298.22;;;10.66;100.00
26043;BME280;13818;52.156;5.382;2023-04-24T10:33:13;100308.53;;;10.88;100.00
26043;BME280;13818;52.156;5.382;2023-04-24T10:35:42;100314.22;;;10.98;100.00
26043;BME280;13818;52.156;5.382;2023-04-24T10:38:12;100313.63;;;11.25;100.00
26043;BME280;13818;52.156;5.382;2023-04-24T10:40:39;100320.28;;;11.48;100.00
26043;BME280;13818;52.156;5.382;2023-04-24T10:43:07;100314.63;;;11.99;100.00
26043;BME280;13818;52.156;5.382;2023-04-24T10:45:36;100318.50;;;11.93;100.00
26043;BME280;13818;52.156;5.382;2023-04-24T10:48:05;100314.56;;;11.84;100.00
26043;BME280;13818;52.156;5.382;2023-04-24T10:50:43;100323.34;;;11.56;100.00
26043;BME280;13818;52.156;5.382;2023-04-24T10:53:15;100334.00;;;11.56;100.00
26043;BME280;13818;52.156;5.382;2023-04-24T10:55:44;100336.41;;;11.14;100.00
26043;BME280;13818;52.156;5.382;2023-04-24T10:58:11;100338.63;;;11.22;100.00
26043;BME280;13818;52.156;5.382;2023-04-24T11:00:39;100338.81;;;11.35;100.00
26043;BME280;13818;52.156;5.382;2023-04-24T11:03:22;100340.94;;;10.80;100.00
26043;BME280;13818;52.156;5.382;2023-04-24T11:05:51;100339.78;;;10.86;100.00
26043;BME280;13818;52.156;5.382;2023-04-24T11:08:23;100343.94;;;10.74;100.00
26043;BME280;13818;52.156;5.382;2023-04-24T11:10:55;100352.03;;;10.56;100.00
26043;BME280;13818;52.156;5.382;2023-04-24T11:13:24;100355.69;;;10.54;100.00
26043;BME280;13818;52.156;5.382;2023-04-24T11:16:13;100357.94;;;10.46;100.00
26043;BME280;13818;52.156;5.382;2023-04-24T11:18:42;100368.28;;;10.17;100.00
26043;BME280;13818;52.156;5.382;2023-04-24T11:21:11;100365.91;;;10.28;100.00
26043;BME280;13818;52.156;5.382;2023-04-24T11:23:39;100376.88;;;10.57;100.00
26043;BME280;13818;52.156;5.382;2023-04-24T11:26:12;100380.78;;;10.83;100.00
26043;BME280;13818;52.156;5.382;2023-04-24T11:28:46;100382.97;;;11.25;100.00
26043;BME280;13818;52.156;5.382;2023-04-24T11:31:38;100381.31;;;11.54;100.00
26043;BME280;13818;52.156;5.382;2023-04-24T11:34:13;100383.06;;;11.69;100.00
26043;BME280;13818;52.156;5.382;2023-04-24T11:36:42;100375.63;;;12.07;100.00
26043;BME280;13818;52.156;5.382;2023-04-24T11:39:10;100370.91;;;12.41;100.00
26043;BME280;13818;52.156;5.382;2023-04-24T11:41:37;100384.00;;;12.00;100.00
26043;BME280;13818;52.156;5.382;2023-04-24T11:44:06;100384.00;;;12.00;100.00
26043;BME280;13818;52.156;5.382;2023-04-24T11:46:33;100384.75;;;12.02;100.00
26043;BME280;13818;52.156;5.382;2023-04-24T11:48:59;100395.75;;;12.12;100.00
26043;BME280;13818;52.156;5.382;2023-04-24T11:51:27;100392.69;;;12.18;100.00
26043;BME280;13818;52.156;5.382;2023-04-24T11:53:55;100394.34;;;12.35;100.00
26043;BME280;13818;52.156;5.382;2023-04-24T11:56:22;100388.88;;;12.08;100.00
26043;BME280;13818;52.156;5.382;2023-04-24T11:58:52;100391.25;;;12.13;100.00
26043;BME280;13818;52.156;5.382;2023-04-24T12:01:19;100398.63;;;12.24;100.00
26043;BME280;13818;52.156;5.382;2023-04-24T12:03:48;100397.31;;;12.45;100.00
26043;BME280;13818;52.156;5.382;2023-04-24T12:06:16;100420.63;;;12.43;100.00
26043;BME280;13818;52.156;5.382;2023-04-24T12:08:47;100408.72;;;12.18;100.00
26043;BME280;13818;52.156;5.382;2023-04-24T12:11:15;100424.88;;;12.17;100.00
26043;BME280;13818;52.156;5.382;2023-04-24T12:13:43;100429.63;;;12.12;100.00
26043;BME280;13818;52.156;5.382;2023-04-24T12:16:11;100429.94;;;11.59;100.00
26043;BME280;13818;52.156;5.382;2023-04-24T12:18:41;100435.72;;;11.51;100.00
26043;BME280;13818;52.156;5.382;2023-04-24T12:21:18;100439.34;;;11.50;100.00
26043;BME280;13818;52.156;5.382;2023-04-24T12:23:48;100447.59;;;11.62;100.00
26043;BME280;13818;52.156;5.382;2023-04-24T12:26:17;100429.25;;;11.23;100.00
26043;BME280;13818;52.156;5.382;2023-04-24T12:28:46;100439.97;;;10.90;100.00
26043;BME280;13818;52.156;5.382;2023-04-24T12:31:13;100447.22;;;11.04;100.00
26043;BME280;13818;52.156;5.382;2023-04-24T12:33:39;100444.72;;;11.01;100.00
26043;BME280;13818;52.156;5.382;2023-04-24T12:36:06;100441.97;;;11.02;100.00
26043;BME280;13818;52.156;5.382;2023-04-24T12:38:35;100446.38;;;11.35;100.00
26043;BME280;13818;52.156;5.382;2023-04-24T12:41:08;100456.13;;;11.36;100.00
26043;BME280;13818;52.156;5.382;2023-04-24T12:43:35;100450.25;;;11.46;100.00
26043;BME280;13818;52.156;5.382;2023-04-24T12:46:03;100459.13;;;11.46;100.00
26043;BME280;13818;52.156;5.382;2023-04-24T12:48:30;100466.53;;;11.57;100.00
26043;BME280;13818;52.156;5.382;2023-04-24T12:50:57;100477.19;;;11.57;100.00
26043;BME280;13818;52.156;5.382;2023-04-24T12:53:27;100473.00;;;11.53;100.00